Time;durP1;ratioP1;P1;durP2;ratioP2;P2;SDS_P1;SDS_P2;PMS_P1;PMS_P2;Temp;Humidity;BMP_temperature;BMP_pressure;BME280_temperature;BME280_humidity;BME280_pressure;Samples;Min_cycle;Max_cycle;Signal;HPM_P1;HPM_P2
2023/03/05 00:02:12;;;;;;;;;;;;;;;2.98;68.25;98131.34;5074134;28;19953;-56
2023/03/05 00:04:40;;;;;;;;;;;;;;;3.06;67.93;98133.59;5082819;28;20361;-55
2023/03/05 00:07:11;;;;;;;;;;;;;;;2.95;68.24;98129.19;5080756;28;19932;-55
2023/03/05 00:09:39;;;;;;;;;;;;;;;2.94;68.63;98131.09;5085846;28;20010;-56
2023/03/05 00:12:07;;;;;;;;;;;;;;;2.94;68.82;98133.78;5077408;28;19932;-55
2023/03/05 00:14:36;;;;;;;;;;;;;;;2.93;68.80;98134.00;5079002;28;20611;-56
2023/03/05 00:17:05;;;;;;;;;;;;;;;2.94;68.65;98131.09;5087217;28;19955;-56
2023/03/05 00:19:33;;;;;;;;;;;;;;;3.06;68.27;98131.69;5091304;28;19924;-55
2023/03/05 00:22:01;;;;;;;;;;;;;;;3.04;68.49;98131.16;5072686;28;19935;-55
2023/03/05 00:24:29;;;;;;;;;;;;;;;3.09;68.08;98131.19;5094470;28;20027;-61
2023/03/05 00:26:58;;;;;;;;;;;;;;;2.93;68.51;98129.47;5094920;28;20330;-61
2023/03/05 00:29:26;;;;;;;;;;;;;;;2.90;69.07;98121.91;5087270;28;19931;-58
2023/03/05 00:31:58;;;;;;;;;;;;;;;2.99;68.68;98123.06;5104633;28;19924;-57
2023/03/05 00:34:27;;;;;;;;;;;;;;;3.01;68.64;98120.94;5076863;28;19950;-60
2023/03/05 00:36:55;;;;;;;;;;;;;;;3.18;68.25;98117.28;5075998;28;19958;-55
2023/03/05 00:39:24;;;;;;;;;;;;;;;3.16;68.17;98120.25;5074293;28;19951;-55
2023/03/05 00:41:52;;;;;;;;;;;;;;;3.09;68.73;98114.25;5071213;28;19932;-55
2023/03/05 00:44:20;;;;;;;;;;;;;;;3.12;68.15;98114.56;5073554;28;20823;-55
2023/03/05 00:46:50;;;;;;;;;;;;;;;3.17;68.50;98118.34;5070627;28;20028;-55
2023/03/05 00:49:19;;;;;;;;;;;;;;;3.04;68.72;98115.06;5057712;28;19928;-55
2023/03/05 00:51:47;;;;;;;;;;;;;;;3.11;68.83;98112.94;5090976;28;20296;-60
2023/03/05 00:54:15;;;;;;;;;;;;;;;3.06;68.67;98114.78;5075662;28;20000;-54
2023/03/05 00:56:42;;;;;;;;;;;;;;;3.00;68.79;98118.50;5070584;28;19931;-54
2023/03/05 00:59:11;;;;;;;;;;;;;;;2.99;69.03;98111.53;5042707;28;19925;-55
2023/03/05 01:01:39;;;;;;;;;;;;;;;3.05;69.41;98115.88;5076239;28;19925;-54
2023/03/05 01:04:06;;;;;;;;;;;;;;;3.07;69.00;98114.53;5082294;28;19977;-54
2023/03/05 01:06:38;;;;;;;;;;;;;;;3.02;69.16;98105.63;5080136;28;19952;-54
2023/03/05 01:09:05;;;;;;;;;;;;;;;3.04;69.10;98104.31;5089924;28;20027;-54
2023/03/05 01:11:33;;;;;;;;;;;;;;;3.03;69.28;98113.41;5087990;28;19928;-55
2023/03/05 01:14:02;;;;;;;;;;;;;;;3.17;68.90;98102.25;5084801;28;19986;-54
2023/03/05 01:16:29;;;;;;;;;;;;;;;3.07;69.09;98103.78;5071360;28;20392;-54
2023/03/05 01:18:57;;;;;;;;;;;;;;;3.06;69.35;98099.50;5086148;28;19960;-56
2023/03/05 01:21:25;;;;;;;;;;;;;;;2.98;69.80;98104.53;5075385;28;19928;-54
2023/03/05 01:23:54;;;;;;;;;;;;;;;2.96;69.58;98095.94;5076384;28;19982;-55
2023/03/05 01:26:22;;;;;;;;;;;;;;;2.84;70.24;98088.88;5079000;28;19981;-55
2023/03/05 01:28:50;;;;;;;;;;;;;;;2.94;69.88;98088.16;5088309;28;19955;-54
2023/03/05 01:31:18;;;;;;;;;;;;;;;2.95;70.03;98083.59;5072469;28;20263;-55
2023/03/05 01:33:46;;;;;;;;;;;;;;;2.86;70.02;98085.91;5086066;28;19928;-55
2023/03/05 01:36:15;;;;;;;;;;;;;;;2.94;70.11;98084.66;5080138;28;19935;-55
2023/03/05 01:38:46;;;;;;;;;;;;;;;2.94;70.07;98082.78;5081622;28;19928;-55
2023/03/05 01:41:16;;;;;;;;;;;;;;;2.85;70.45;98087.00;5087458;28;19931;-55
2023/03/05 01:43:44;;;;;;;;;;;;;;;2.75;70.45;98078.88;5098213;28;19932;-57
2023/03/05 01:46:30;;;;;;;;;;;;;;;2.86;70.24;98076.00;5077230;28;19952;-55
2023/03/05 01:49:00;;;;;;;;;;;;;;;2.87;70.43;98076.81;5079297;28;19932;-55
2023/03/05 01:51:33;;;;;;;;;;;;;;;2.82;70.38;98072.22;5077180;28;19932;-55
2023/03/05 01:54:01;;;;;;;;;;;;;;;2.79;70.49;98070.03;5090302;28;19935;-56
2023/03/05 01:56:30;;;;;;;;;;;;;;;2.83;70.57;98065.00;5093990;28;19984;-55
2023/03/05 01:59:02;;;;;;;;;;;;;;;2.89;70.61;98070.13;5085664;28;19973;-56
2023/03/05 02:01:31;;;;;;;;;;;;;;;2.85;70.34;98060.16;5076808;28;19928;-58
2023/03/05 02:03:59;;;;;;;;;;;;;;;2.88;70.51;98056.97;5077341;28;20369;-54
2023/03/05 02:06:27;;;;;;;;;;;;;;;2.90;70.25;98060.19;5088883;28;19932;-56
2023/03/05 02:08:55;;;;;;;;;;;;;;;2.84;70.60;98061.22;5089565;28;19939;-57
2023/03/05 02:11:23;;;;;;;;;;;;;;;2.86;70.37;98053.72;5087383;28;19947;-59
2023/03/05 02:13:52;;;;;;;;;;;;;;;2.87;70.40;98052.66;5093473;28;20261;-54
2023/03/05 02:16:20;;;;;;;;;;;;;;;2.72;71.11;98057.94;5085040;28;19925;-55
2023/03/05 02:18:50;;;;;;;;;;;;;;;2.83;70.61;98044.34;5097279;28;20052;-56
2023/03/05 02:21:28;;;;;;;;;;;;;;;2.89;70.32;98047.84;5087057;28;20344;-54
2023/03/05 02:23:56;;;;;;;;;;;;;;;2.84;70.49;98042.44;5076294;28;19985;-55
2023/03/05 02:26:24;;;;;;;;;;;;;;;2.85;70.42;98036.00;5081820;28;20422;-54
2023/03/05 02:28:53;;;;;;;;;;;;;;;2.87;70.07;98039.22;5088785;28;19943;-57
2023/03/05 02:31:22;;;;;;;;;;;;;;;2.85;70.24;98038.69;5078731;28;19935;-54
2023/03/05 02:33:50;;;;;;;;;;;;;;;2.85;70.05;98030.66;5083703;28;20365;-54
2023/03/05 02:36:20;;;;;;;;;;;;;;;2.75;70.78;98041.31;5093043;28;19985;-59
2023/03/05 02:38:51;;;;;;;;;;;;;;;2.71;70.71;98029.47;5099386;28;19928;-54
2023/03/05 02:41:20;;;;;;;;;;;;;;;2.78;70.26;98024.69;5098493;28;19924;-55
2023/03/05 02:43:48;;;;;;;;;;;;;;;2.81;70.22;98014.25;5089910;28;20514;-56
2023/03/05 02:46:16;;;;;;;;;;;;;;;2.82;69.86;98020.41;5099950;28;19931;-55
2023/03/05 02:48:44;;;;;;;;;;;;;;;2.78;70.37;98016.66;5111322;28;19923;-55
2023/03/05 02:51:13;;;;;;;;;;;;;;;2.82;69.56;98023.09;5085603;28;20356;-55
2023/03/05 02:53:43;;;;;;;;;;;;;;;2.75;69.80;98017.97;5096292;28;19947;-54
2023/03/05 02:56:17;;;;;;;;;;;;;;;2.82;69.22;98013.19;5108208;28;19931;-55
2023/03/05 02:58:45;;;;;;;;;;;;;;;2.73;69.75;98004.00;5082639;28;19924;-55
2023/03/05 03:01:12;;;;;;;;;;;;;;;2.74;69.71;97997.56;5089673;28;19932;-55
2023/03/05 03:03:43;;;;;;;;;;;;;;;2.63;69.63;97996.69;5081712;28;19932;-55
2023/03/05 03:06:11;;;;;;;;;;;;;;;2.69;68.59;97994.06;5091101;28;19931;-55
2023/03/05 03:08:39;;;;;;;;;;;;;;;2.76;67.97;97994.63;5081572;28;20426;-56
2023/03/05 03:11:08;;;;;;;;;;;;;;;2.76;68.09;97994.63;5099801;28;19970;-55
2023/03/05 03:13:37;;;;;;;;;;;;;;;2.77;67.72;98001.59;5094137;28;19924;-55
2023/03/05 03:16:06;;;;;;;;;;;;;;;2.73;68.20;98001.31;5089417;28;20305;-55
2023/03/05 03:18:38;;;;;;;;;;;;;;;2.74;68.16;97997.56;5084120;28;19932;-55
2023/03/05 03:21:06;;;;;;;;;;;;;;;2.69;68.23;97991.38;5089946;28;19924;-55
2023/03/05 03:23:34;;;;;;;;;;;;;;;2.85;67.50;97985.84;5092298;28;19924;-56
2023/03/05 03:26:01;;;;;;;;;;;;;;;2.74;67.72;97989.53;5086150;28;19924;-55
2023/03/05 03:28:29;;;;;;;;;;;;;;;2.77;67.32;97974.78;5083560;28;19924;-54
2023/03/05 03:30:58;;;;;;;;;;;;;;;2.74;67.80;97981.47;5065783;28;20420;-55
2023/03/05 03:33:26;;;;;;;;;;;;;;;2.74;67.80;97981.47;5078518;28;19930;-55
2023/03/05 03:35:54;;;;;;;;;;;;;;;2.74;67.35;97975.31;5075208;28;19960;-55
2023/03/05 03:38:21;;;;;;;;;;;;;;;2.66;67.52;97975.78;5064811;28;20420;-55
2023/03/05 03:40:49;;;;;;;;;;;;;;;2.84;66.87;97983.41;5040746;28;19929;-55
2023/03/05 03:43:17;;;;;;;;;;;;;;;2.87;66.88;97980.19;5067018;28;19928;-55
2023/03/05 03:45:45;;;;;;;;;;;;;;;2.79;66.91;97970.78;5042604;28;19931;-55
2023/03/05 03:48:14;;;;;;;;;;;;;;;2.71;67.59;97978.50;5060164;28;19928;-55
2023/03/05 03:50:42;;;;;;;;;;;;;;;2.80;67.63;97979.63;5060258;28;20371;-55
2023/03/05 03:53:12;;;;;;;;;;;;;;;2.79;67.14;97972.66;5064805;28;19924;-56
2023/03/05 03:55:45;;;;;;;;;;;;;;;2.80;67.35;97975.06;5047693;28;19957;-55
2023/03/05 03:58:13;;;;;;;;;;;;;;;2.80;66.96;97974.28;5060575;28;20354;-56
2023/03/05 04:00:40;;;;;;;;;;;;;;;2.79;67.09;97972.66;5059825;28;19925;-56
2023/03/05 04:03:08;;;;;;;;;;;;;;;2.86;66.48;97973.22;5070758;28;19925;-55
2023/03/05 04:05:38;;;;;;;;;;;;;;;2.79;66.74;97967.28;5049379;28;19940;-54
2023/03/05 04:08:10;;;;;;;;;;;;;;;2.83;66.46;97960.34;5068421;28;19955;-56
2023/03/05 04:10:38;;;;;;;;;;;;;;;2.71;66.42;97963.22;5071758;28;19936;-56
2023/03/05 04:13:19;;;;;;;;;;;;;;;2.76;66.74;97963.25;5070226;28;19928;-57
2023/03/05 04:15:50;;;;;;;;;;;;;;;2.71;66.55;97951.66;5062310;28;19974;-55
2023/03/05 04:18:20;;;;;;;;;;;;;;;2.67;66.64;97953.28;5059308;28;20023;-56
2023/03/05 04:20:49;;;;;;;;;;;;;;;2.76;67.00;97957.06;5062602;28;19928;-56
2023/03/05 04:23:17;;;;;;;;;;;;;;;2.73;66.92;97949.56;5067438;28;20373;-56
2023/03/05 04:25:45;;;;;;;;;;;;;;;2.71;66.88;97946.31;5058939;28;19925;-55
2023/03/05 04:28:13;;;;;;;;;;;;;;;2.67;67.25;97948.72;5067146;28;19935;-55
2023/03/05 04:30:41;;;;;;;;;;;;;;;2.67;67.38;97947.91;5057493;28;19924;-56
2023/03/05 04:33:08;;;;;;;;;;;;;;;2.73;67.25;97946.88;5069266;28;19925;-59
2023/03/05 04:35:36;;;;;;;;;;;;;;;2.75;67.32;97940.16;5072083;28;19943;-55
2023/03/05 04:38:05;;;;;;;;;;;;;;;2.71;67.91;97943.63;5078961;28;19924;-55
2023/03/05 04:40:33;;;;;;;;;;;;;;;2.66;67.93;97940.91;5087328;28;19924;-56
2023/03/05 04:43:01;;;;;;;;;;;;;;;2.72;68.00;97942.59;5056587;28;19924;-55
2023/03/05 04:45:29;;;;;;;;;;;;;;;2.71;68.29;97939.06;5072052;28;19924;-56
2023/03/05 04:47:57;;;;;;;;;;;;;;;2.69;68.19;97929.66;5080192;28;19924;-59
2023/03/05 04:50:25;;;;;;;;;;;;;;;2.74;68.73;97937.75;5077928;28;19958;-55
2023/03/05 04:52:53;;;;;;;;;;;;;;;2.69;68.92;97943.88;5071899;28;19924;-56
2023/03/05 04:55:22;;;;;;;;;;;;;;;2.77;68.59;97939.91;5081652;28;19928;-56
2023/03/05 04:57:50;;;;;;;;;;;;;;;2.73;69.03;97942.31;5074106;28;19924;-55
2023/03/05 05:00:18;;;;;;;;;;;;;;;2.65;69.63;97944.66;5068052;28;19928;-55
2023/03/05 05:02:47;;;;;;;;;;;;;;;2.66;69.52;97940.91;5073002;28;19930;-55
2023/03/05 05:05:16;;;;;;;;;;;;;;;2.76;69.47;97932.91;5085084;28;19924;-55
2023/03/05 05:07:43;;;;;;;;;;;;;;;2.75;69.68;97925.94;5085813;28;20266;-55
2023/03/05 05:10:12;;;;;;;;;;;;;;;2.72;70.15;97926.47;5086676;28;19931;-55
2023/03/05 05:12:41;;;;;;;;;;;;;;;2.73;70.14;97925.41;5075623;28;19924;-55
2023/03/05 05:15:09;;;;;;;;;;;;;;;2.78;70.01;97918.19;5083292;28;19997;-55
2023/03/05 05:17:38;;;;;;;;;;;;;;;2.78;70.03;97920.06;5087426;28;19932;-55
2023/03/05 05:20:07;;;;;;;;;;;;;;;2.75;70.17;97917.91;5081833;28;20381;-55
2023/03/05 05:22:35;;;;;;;;;;;;;;;2.80;70.45;97921.41;5085020;28;19982;-55
2023/03/05 05:25:03;;;;;;;;;;;;;;;2.71;70.85;97919.47;5089197;28;19931;-55
2023/03/05 05:27:31;;;;;;;;;;;;;;;2.76;70.64;97924.88;5083770;28;19924;-57
2023/03/05 05:30:01;;;;;;;;;;;;;;;2.84;70.10;97925.19;5082824;28;19924;-55
2023/03/05 05:32:28;;;;;;;;;;;;;;;2.71;70.52;97919.47;5073956;28;20282;-54
2023/03/05 05:34:56;;;;;;;;;;;;;;;2.79;70.32;97929.72;5081065;28;19925;-55
2023/03/05 05:37:24;;;;;;;;;;;;;;;2.84;70.15;97917.16;5081598;28;19924;-55
2023/03/05 05:39:52;;;;;;;;;;;;;;;2.79;70.59;97929.72;5082673;28;19950;-57
2023/03/05 05:42:22;;;;;;;;;;;;;;;2.83;70.29;97925.47;5083165;28;19924;-55
2023/03/05 05:44:49;;;;;;;;;;;;;;;2.90;70.06;97926.03;5089911;28;20025;-56
2023/03/05 05:47:19;;;;;;;;;;;;;;;2.92;69.68;97929.25;5079724;28;19925;-57
2023/03/05 05:49:47;;;;;;;;;;;;;;;2.77;70.32;97921.94;5066260;28;19924;-55
2023/03/05 05:52:14;;;;;;;;;;;;;;;2.93;70.02;97925.53;5086821;28;19924;-56
2023/03/05 05:54:42;;;;;;;;;;;;;;;2.88;70.19;97925.50;5080619;28;19928;-55
2023/03/05 05:57:10;;;;;;;;;;;;;;;2.93;69.70;97925.53;5078254;28;19967;-55
2023/03/05 05:59:38;;;;;;;;;;;;;;;2.84;70.34;97921.72;5082396;28;19929;-56
2023/03/05 06:02:06;;;;;;;;;;;;;;;2.79;70.38;97925.16;5067322;28;19978;-56
2023/03/05 06:04:36;;;;;;;;;;;;;;;2.89;70.69;97921.75;5089386;28;19935;-55
2023/03/05 06:07:03;;;;;;;;;;;;;;;2.83;70.83;97925.47;5085066;28;19924;-55
2023/03/05 06:09:31;;;;;;;;;;;;;;;2.89;70.79;97927.09;5082828;28;19924;-58
2023/03/05 06:11:59;;;;;;;;;;;;;;;2.98;70.30;97922.81;5077849;28;19936;-56
2023/03/05 06:14:32;;;;;;;;;;;;;;;3.03;70.16;97930.09;5077399;28;19928;-55
2023/03/05 06:17:00;;;;;;;;;;;;;;;3.03;70.61;97927.41;5076191;28;20304;-56
2023/03/05 06:19:30;;;;;;;;;;;;;;;2.99;70.50;97932.53;5079263;28;20369;-56
2023/03/05 06:21:59;;;;;;;;;;;;;;;2.86;71.13;97930.28;5084496;28;19953;-58
2023/03/05 06:24:27;;;;;;;;;;;;;;;2.95;70.66;97931.41;5085904;28;19924;-56
2023/03/05 06:26:55;;;;;;;;;;;;;;;2.87;71.06;97926.53;5075265;28;19981;-55
2023/03/05 06:29:23;;;;;;;;;;;;;;;3.03;70.68;97927.41;5084087;28;20269;-56
2023/03/05 06:31:50;;;;;;;;;;;;;;;3.11;69.89;97926.94;5061973;28;19924;-54
2023/03/05 06:34:18;;;;;;;;;;;;;;;3.01;70.49;97932.25;5085893;28;19970;-54
2023/03/05 06:36:46;;;;;;;;;;;;;;;3.07;70.45;97926.63;5078199;28;19986;-54
2023/03/05 06:39:16;;;;;;;;;;;;;;;3.19;70.13;97929.09;5088903;28;20354;-54
2023/03/05 06:41:44;;;;;;;;;;;;;;;3.22;69.86;97927.78;5086385;28;19925;-54
2023/03/05 06:44:12;;;;;;;;;;;;;;;3.20;69.72;97924.56;5089750;28;20408;-54
2023/03/05 06:46:40;;;;;;;;;;;;;;;3.13;69.81;97927.47;5077293;28;19928;-55
2023/03/05 06:49:08;;;;;;;;;;;;;;;3.24;69.50;97925.63;5081245;28;19939;-54
2023/03/05 06:51:37;;;;;;;;;;;;;;;3.11;69.93;97927.72;5078924;28;19928;-54
2023/03/05 06:54:05;;;;;;;;;;;;;;;3.07;69.80;97926.63;5089623;28;19924;-58
2023/03/05 06:56:36;;;;;;;;;;;;;;;3.02;70.37;97921.25;5079916;28;20302;-55
2023/03/05 06:59:04;;;;;;;;;;;;;;;2.98;70.67;97925.50;5074522;28;19924;-54
2023/03/05 07:01:31;;;;;;;;;;;;;;;3.11;70.06;97927.72;5082983;28;19931;-59
2023/03/05 07:04:01;;;;;;;;;;;;;;;3.02;70.54;97931.19;5081932;28;19967;-56
2023/03/05 07:06:32;;;;;;;;;;;;;;;3.00;70.51;97926.06;5084892;28;19928;-55
2023/03/05 07:09:00;;;;;;;;;;;;;;;3.09;70.27;97934.41;5084540;28;19928;-56
2023/03/05 07:11:28;;;;;;;;;;;;;;;3.22;69.84;97927.78;5088655;28;20305;-55
2023/03/05 07:13:57;;;;;;;;;;;;;;;3.22;69.92;97933.94;5087390;28;19925;-54
2023/03/05 07:16:26;;;;;;;;;;;;;;;3.23;70.08;97927.50;5082079;28;20044;-55
2023/03/05 07:18:54;;;;;;;;;;;;;;;3.30;69.75;97927.25;5073160;28;20404;-56
2023/03/05 07:21:23;;;;;;;;;;;;;;;3.32;69.50;97925.13;5093512;28;19939;-54
2023/03/05 07:23:52;;;;;;;;;;;;;;;3.24;69.84;97925.63;5093583;28;19932;-56
2023/03/05 07:26:20;;;;;;;;;;;;;;;3.35;69.72;97919.22;5065251;28;19928;-54
2023/03/05 07:28:48;;;;;;;;;;;;;;;3.31;70.05;97915.47;5093871;28;19931;-55
2023/03/05 07:31:19;;;;;;;;;;;;;;;3.29;69.41;97917.59;5084259;28;19960;-58
2023/03/05 07:33:47;;;;;;;;;;;;;;;3.40;69.47;97917.34;5112992;28;19927;-54
2023/03/05 07:36:15;;;;;;;;;;;;;;;3.46;69.23;97909.31;5102626;28;19924;-58
2023/03/05 07:38:43;;;;;;;;;;;;;;;3.47;69.20;97909.06;5107165;28;19967;-55
2023/03/05 07:41:11;;;;;;;;;;;;;;;3.55;69.04;97910.41;5084407;28;19936;-54
2023/03/05 07:43:40;;;;;;;;;;;;;;;3.58;68.63;97909.88;5088926;28;19924;-54
2023/03/05 07:46:08;;;;;;;;;;;;;;;3.63;68.37;97913.38;5098809;28;19924;-54
2023/03/05 07:48:38;;;;;;;;;;;;;;;3.55;68.49;97908.53;5104284;28;19928;-54
2023/03/05 07:51:06;;;;;;;;;;;;;;;3.63;68.62;97905.31;5090292;28;20372;-54
2023/03/05 07:53:34;;;;;;;;;;;;;;;3.70;67.96;97913.13;5098958;28;19924;-55
2023/03/05 07:56:02;;;;;;;;;;;;;;;3.65;68.10;97907.75;5111835;28;19924;-54
2023/03/05 07:58:30;;;;;;;;;;;;;;;3.68;68.16;97912.59;5084467;28;19932;-56
2023/03/05 08:00:58;;;;;;;;;;;;;;;3.77;68.09;97910.97;5096266;28;19928;-56
2023/03/05 08:03:26;;;;;;;;;;;;;;;3.51;67.47;97909.31;5087543;28;19924;-56
2023/03/05 08:05:55;;;;;;;;;;;;;;;3.73;67.51;97907.22;5094086;28;20289;-56
2023/03/05 08:08:22;;;;;;;;;;;;;;;3.83;66.86;97912.59;5092081;28;19924;-54
2023/03/05 08:10:50;;;;;;;;;;;;;;;3.86;66.23;97905.88;5090720;28;19935;-61
2023/03/05 08:13:18;;;;;;;;;;;;;;;3.89;66.05;97910.75;5085185;28;20014;-55
2023/03/05 08:15:46;;;;;;;;;;;;;;;3.89;65.43;97898.09;5082846;28;20368;-54
2023/03/05 08:18:17;;;;;;;;;;;;;;;3.90;65.01;97906.97;5089370;28;19924;-60
2023/03/05 08:20:45;;;;;;;;;;;;;;;3.98;64.64;97906.41;5087438;28;19968;-54
2023/03/05 08:23:14;;;;;;;;;;;;;;;3.97;65.08;97906.69;5084817;28;19947;-55
2023/03/05 08:25:42;;;;;;;;;;;;;;;3.99;64.84;97902.66;5083031;28;19946;-56
2023/03/05 08:28:09;;;;;;;;;;;;;;;4.13;63.92;97901.06;5087664;28;19932;-58
2023/03/05 08:30:39;;;;;;;;;;;;;;;4.07;63.85;97899.44;5078486;28;19925;-59
2023/03/05 08:33:07;;;;;;;;;;;;;;;4.17;62.72;97902.13;5098126;28;20316;-58
2023/03/05 08:35:35;;;;;;;;;;;;;;;4.23;62.14;97899.44;5078988;28;19932;-54
2023/03/05 08:38:03;;;;;;;;;;;;;;;4.26;61.73;97901.56;5092410;28;19930;-60
2023/03/05 08:40:32;;;;;;;;;;;;;;;4.22;62.35;97895.16;5079036;28;19932;-55
2023/03/05 08:43:00;;;;;;;;;;;;;;;4.14;62.58;97897.28;5077364;28;19924;-56
2023/03/05 08:45:28;;;;;;;;;;;;;;;4.09;63.40;97893.78;5084920;28;20373;-54
2023/03/05 08:47:56;;;;;;;;;;;;;;;4.19;62.70;97897.28;5084813;28;19928;-56
2023/03/05 08:50:24;;;;;;;;;;;;;;;4.09;62.45;97894.59;5081888;28;19928;-54
2023/03/05 08:52:52;;;;;;;;;;;;;;;3.98;62.03;97898.34;5090082;28;19935;-55
2023/03/05 08:55:20;;;;;;;;;;;;;;;3.99;62.19;97896.47;5090692;28;20285;-55
2023/03/05 08:57:49;;;;;;;;;;;;;;;4.07;61.95;97891.38;5087684;28;19924;-55
2023/03/05 09:00:18;;;;;;;;;;;;;;;4.18;61.69;97882.22;5079252;28;20452;-55
2023/03/05 09:02:46;;;;;;;;;;;;;;;4.24;61.72;97884.91;5080622;28;19981;-55
2023/03/05 09:05:14;;;;;;;;;;;;;;;4.07;61.39;97885.19;5083804;28;19924;-54
2023/03/05 09:07:41;;;;;;;;;;;;;;;4.22;60.85;97887.06;5083006;28;19932;-54
2023/03/05 09:10:11;;;;;;;;;;;;;;;4.32;60.20;97881.69;5088123;28;20304;-55
2023/03/05 09:12:39;;;;;;;;;;;;;;;4.32;58.28;97887.06;5092904;28;19924;-56
2023/03/05 09:15:09;;;;;;;;;;;;;;;4.26;57.29;97885.44;5074972;28;19928;-55
2023/03/05 09:17:37;;;;;;;;;;;;;;;4.21;57.41;97878.22;5100577;28;19924;-55
2023/03/05 09:20:05;;;;;;;;;;;;;;;4.08;57.96;97876.84;5100131;28;19976;-55
2023/03/05 09:22:33;;;;;;;;;;;;;;;4.30;57.97;97878.44;5105009;28;19923;-56
2023/03/05 09:25:01;;;;;;;;;;;;;;;4.28;57.90;97876.03;5103808;28;20394;-55
2023/03/05 09:27:29;;;;;;;;;;;;;;;4.33;57.85;97873.34;5098144;28;19931;-57
2023/03/05 09:29:57;;;;;;;;;;;;;;;4.38;58.45;97875.22;5089788;28;19923;-56
2023/03/05 09:32:26;;;;;;;;;;;;;;;4.37;58.57;97874.41;5081845;28;19931;-54
2023/03/05 09:34:54;;;;;;;;;;;;;;;4.38;57.92;97877.91;5088386;28;19930;-55
2023/03/05 09:37:25;;;;;;;;;;;;;;;4.37;57.98;97873.63;5078456;28;19929;-55
2023/03/05 09:39:53;;;;;;;;;;;;;;;4.26;58.63;97867.44;5084777;28;19924;-55
2023/03/05 09:42:28;;;;;;;;;;;;;;;4.26;58.29;97870.13;5084074;28;19932;-55
2023/03/05 09:45:00;;;;;;;;;;;;;;;4.18;58.97;97874.16;5085390;28;20364;-55
2023/03/05 09:47:33;;;;;;;;;;;;;;;4.14;59.06;97870.38;5081534;28;19948;-55
2023/03/05 09:50:02;;;;;;;;;;;;;;;4.00;59.71;97869.34;5077610;28;19924;-54
2023/03/05 09:52:33;;;;;;;;;;;;;;;4.01;59.67;97868.25;5086031;28;19931;-56
2023/03/05 09:55:04;;;;;;;;;;;;;;;3.98;59.59;97866.09;5089961;28;20270;-54
2023/03/05 09:57:33;;;;;;;;;;;;;;;3.88;59.28;97861.53;5089932;28;19924;-57
2023/03/05 10:00:04;;;;;;;;;;;;;;;3.88;59.64;97860.72;5083962;28;19925;-55
2023/03/05 10:02:40;;;;;;;;;;;;;;;3.92;59.92;97868.00;5072913;28;20381;-55
2023/03/05 10:05:12;;;;;;;;;;;;;;;4.04;59.75;97869.59;5082611;28;20293;-55
2023/03/05 10:07:41;;;;;;;;;;;;;;;3.99;59.94;97866.91;5097568;28;19987;-55
2023/03/05 10:10:10;;;;;;;;;;;;;;;3.99;59.95;97856.97;5074154;28;19924;-59
2023/03/05 10:12:41;;;;;;;;;;;;;;;3.93;59.90;97864.22;5085479;28;19928;-55
2023/03/05 10:15:11;;;;;;;;;;;;;;;3.67;60.03;97855.38;5077806;28;20377;-56
2023/03/05 10:17:59;;;;;;;;;;;;;;;3.73;60.18;97860.72;5083805;28;19928;-55
2023/03/05 10:20:31;;;;;;;;;;;;;;;3.80;59.79;97854.03;5074136;28;19925;-55
2023/03/05 10:23:03;;;;;;;;;;;;;;;3.86;58.90;97857.50;5070494;28;19974;-55
2023/03/05 10:25:36;;;;;;;;;;;;;;;3.82;58.26;97853.75;5081481;28;20350;-55
2023/03/05 10:28:05;;;;;;;;;;;;;;;3.78;58.02;97847.28;5104725;28;20025;-55
2023/03/05 10:30:35;;;;;;;;;;;;;;;3.79;57.58;97847.03;5084893;28;19924;-56
2023/03/05 10:33:11;;;;;;;;;;;;;;;3.79;57.26;97840.88;5077476;28;19964;-55
2023/03/05 10:35:41;;;;;;;;;;;;;;;3.89;56.98;97836.28;5089718;28;19928;-55
2023/03/05 10:38:17;;;;;;;;;;;;;;;4.07;56.56;97831.44;5088880;28;19928;-55
2023/03/05 10:40:45;;;;;;;;;;;;;;;4.09;55.60;97827.38;5076096;28;19931;-59
2023/03/05 10:43:18;;;;;;;;;;;;;;;4.19;54.88;97827.38;5092610;28;20046;-56
2023/03/05 10:45:46;;;;;;;;;;;;;;;4.16;54.65;97829.81;5086415;28;20395;-55
2023/03/05 10:48:27;;;;;;;;;;;;;;;4.21;53.77;97829.81;5082140;28;19932;-55
2023/03/05 10:50:58;;;;;;;;;;;;;;;4.33;53.70;97824.13;5100104;28;20015;-55
2023/03/05 10:53:26;;;;;;;;;;;;;;;4.29;53.97;97825.75;5090566;28;19924;-55
2023/03/05 10:55:56;;;;;;;;;;;;;;;4.32;53.52;97819.84;5089653;28;19931;-56
2023/03/05 10:58:24;;;;;;;;;;;;;;;4.27;53.66;97819.84;5092650;28;19928;-55
2023/03/05 11:01:00;;;;;;;;;;;;;;;4.26;53.67;97821.72;5080566;28;20290;-55
2023/03/05 11:03:37;;;;;;;;;;;;;;;4.19;54.19;97813.13;5085582;28;19960;-55
2023/03/05 11:06:11;;;;;;;;;;;;;;;4.18;53.22;97812.31;5087967;28;19960;-55
2023/03/05 11:08:39;;;;;;;;;;;;;;;3.98;55.22;97804.28;5091245;28;20084;-55
2023/03/05 11:11:12;;;;;;;;;;;;;;;4.32;53.95;97801.00;5088271;28;19931;-55
2023/03/05 11:13:43;;;;;;;;;;;;;;;4.60;53.10;97802.25;5079265;28;19928;-63
2023/03/05 11:16:16;;;;;;;;;;;;;;;4.66;53.44;97801.94;5078562;28;19928;-55
2023/03/05 11:18:48;;;;;;;;;;;;;;;4.73;52.47;97797.06;5084005;28;19924;-57
2023/03/05 11:21:22;;;;;;;;;;;;;;;4.84;51.83;97791.63;5089354;28;19947;-54
2023/03/05 11:24:03;;;;;;;;;;;;;;;4.64;52.64;97790.66;5083588;28;19936;-60
2023/03/05 11:26:31;;;;;;;;;;;;;;;4.72;51.35;97781.19;5080436;28;19924;-60
2023/03/05 11:29:00;;;;;;;;;;;;;;;4.67;51.49;97782.03;5080591;28;19936;-55
2023/03/05 11:31:28;;;;;;;;;;;;;;;4.59;52.20;97784.50;5077342;28;19977;-56
2023/03/05 11:33:58;;;;;;;;;;;;;;;4.52;51.40;97768.63;5086214;28;19925;-55
2023/03/05 11:36:28;;;;;;;;;;;;;;;4.55;51.97;97769.97;5091581;28;19997;-55
2023/03/05 11:38:58;;;;;;;;;;;;;;;4.67;51.20;97765.06;5086349;28;19963;-55
2023/03/05 11:41:36;;;;;;;;;;;;;;;4.65;51.20;97778.81;5079311;28;19931;-55
2023/03/05 11:44:06;;;;;;;;;;;;;;;4.66;51.13;97766.97;5087019;28;19924;-55
2023/03/05 11:46:37;;;;;;;;;;;;;;;4.73;50.37;97756.69;5092465;28;19924;-55
2023/03/05 11:49:07;;;;;;;;;;;;;;;4.72;50.24;97755.09;5102919;28;19945;-56
2023/03/05 11:51:37;;;;;;;;;;;;;;;4.84;49.57;97748.56;5108556;28;19932;-56
2023/03/05 11:54:06;;;;;;;;;;;;;;;4.46;49.89;97758.97;5104338;28;19977;-55
2023/03/05 11:56:35;;;;;;;;;;;;;;;4.76;50.72;97746.47;5097361;28;19932;-55
2023/03/05 11:59:04;;;;;;;;;;;;;;;4.84;50.66;97749.38;5102945;28;19931;-56
2023/03/05 12:01:33;;;;;;;;;;;;;;;4.84;50.21;97744.00;5090682;28;19928;-55
2023/03/05 12:04:01;;;;;;;;;;;;;;;4.71;49.08;97736.53;5090952;28;19924;-55
2023/03/05 12:06:34;;;;;;;;;;;;;;;4.64;49.30;97739.53;5073024;28;19924;-55
2023/03/05 12:09:02;;;;;;;;;;;;;;;4.58;48.97;97735.28;5086030;28;19932;-55
2023/03/05 12:11:30;;;;;;;;;;;;;;;4.54;49.05;97728.03;5090070;28;19931;-55
2023/03/05 12:13:59;;;;;;;;;;;;;;;4.49;49.16;97728.84;5090783;28;19932;-55
2023/03/05 12:16:31;;;;;;;;;;;;;;;4.55;49.88;97725.06;5089184;28;19928;-55
2023/03/05 12:19:08;;;;;;;;;;;;;;;4.60;49.96;97722.34;5103223;28;20326;-55
2023/03/05 12:21:38;;;;;;;;;;;;;;;4.51;50.01;97710.53;5106144;28;20389;-54
2023/03/05 12:24:20;;;;;;;;;;;;;;;4.50;49.81;97717.00;5109464;28;19927;-55
2023/03/05 12:26:54;;;;;;;;;;;;;;;4.26;50.88;97710.63;5101288;28;19928;-56
2023/03/05 12:29:29;;;;;;;;;;;;;;;4.49;50.05;97704.63;5107353;28;19923;-55
2023/03/05 12:32:00;;;;;;;;;;;;;;;4.51;50.32;97702.47;5091291;28;19930;-55
2023/03/05 12:34:35;;;;;;;;;;;;;;;4.64;49.63;97691.09;5091382;28;19924;-55
2023/03/05 12:37:04;;;;;;;;;;;;;;;4.68;49.68;97692.13;5062311;28;19932;-55
2023/03/05 12:39:46;;;;;;;;;;;;;;;4.69;49.55;97693.78;5091411;28;20340;-56
2023/03/05 12:42:39;;;;;;;;;;;;;;;4.66;50.03;97685.44;5090564;28;19924;-54
2023/03/05 12:45:24;;;;;;;;;;;;;;;4.80;49.53;97685.63;5089642;28;19924;-56
2023/03/05 12:48:10;;;;;;;;;;;;;;;4.40;51.04;97682.09;5087275;28;19928;-56
2023/03/05 12:50:50;;;;;;;;;;;;;;;4.77;50.37;97678.09;5082741;28;19924;-55
2023/03/05 12:53:20;;;;;;;;;;;;;;;4.35;51.38;97671.34;5070233;28;19924;-54
2023/03/05 12:55:53;;;;;;;;;;;;;;;4.51;51.09;97670.19;5086388;28;19931;-54
2023/03/05 12:58:24;;;;;;;;;;;;;;;4.58;50.98;97665.31;5083600;28;20405;-55
2023/03/05 13:00:52;;;;;;;;;;;;;;;4.73;50.42;97659.81;5074452;28;19924;-55
2023/03/05 13:03:21;;;;;;;;;;;;;;;4.93;50.15;97664.25;5088801;28;20530;-56
2023/03/05 13:05:49;;;;;;;;;;;;;;;4.97;49.65;97668.00;5083645;28;19924;-55
2023/03/05 13:08:21;;;;;;;;;;;;;;;4.92;49.33;97664.56;5069556;28;19931;-55
2023/03/05 13:10:52;;;;;;;;;;;;;;;4.75;50.23;97664.13;5090315;28;20369;-55